Time;durP1;ratioP1;P1;durP2;ratioP2;P2;SDS_P1;SDS_P2;PMS_P1;PMS_P2;Temp;Humidity;BMP_temperature;BMP_pressure;BME280_temperature;BME280_humidity;BME280_pressure;Samples;Min_cycle;Max_cycle;Signal;HPM_P1;HPM_P2
2022/10/08 00:01:25;;;;;;;44.03;39.80;;;;;;;8.32;100.00;101922.97;6123814;23;20022;-84
2022/10/08 00:03:55;;;;;;;46.90;42.55;;;;;;;8.80;100.00;101920.59;6131263;23;20038;-84
2022/10/08 00:06:34;;;;;;;44.10;39.88;;;;;;;8.67;100.00;101918.44;6129743;23;20044;-84
2022/10/08 00:09:31;;;;;;;41.55;37.47;;;;;;;7.90;100.00;101920.34;6130197;23;20054;-85
2022/10/08 00:12:04;;;;;;;44.83;40.50;;;;;;;8.11;100.00;101918.13;6106433;23;20025;-86
2022/10/08 00:14:51;;;;;;;48.47;44.22;;;;;;;8.68;100.00;101920.06;6129286;23;20026;-85
2022/10/08 00:17:21;;;;;;;52.38;47.50;;;;;;;8.73;100.00;101919.59;6130191;23;20022;-83
2022/10/08 00:19:56;;;;;;;49.45;45.15;;;;;;;8.71;100.00;101914.44;6132468;23;20022;-85
2022/10/08 00:22:32;;;;;;;46.55;42.45;;;;;;;8.60;100.00;101910.31;6131089;23;20032;-85
2022/10/08 00:25:11;;;;;;;47.85;43.50;;;;;;;8.70;100.00;101912.81;6132080;23;20022;-83
2022/10/08 00:27:52;;;;;;;45.42;41.10;;;;;;;8.65;100.00;101902.72;6128747;23;20030;-87
2022/10/08 00:30:22;;;;;;;45.10;40.83;;;;;;;8.45;100.00;101907.47;6128782;23;20072;-85
2022/10/08 00:33:11;;;;;;;42.40;38.30;;;;;;;7.79;100.00;101895.81;6129423;23;20028;-84
2022/10/08 00:36:01;;;;;;;43.88;39.45;;;;;;;8.35;100.00;101906.78;6131726;23;20025;-84
2022/10/08 00:38:36;;;;;;;45.30;40.92;;;;;;;8.37;100.00;101904.78;6133242;23;20031;-85
2022/10/08 00:41:29;;;;;;;46.47;41.72;;;;;;;8.29;100.00;101896.84;6129125;23;20061;-85
2022/10/08 00:44:08;;;;;;;49.17;44.67;;;;;;;8.34;100.00;101899.81;6130660;23;20471;-85
2022/10/08 00:46:47;;;;;;;44.67;40.53;;;;;;;8.13;100.00;101894.13;6128072;23;20022;-85
2022/10/08 00:49:26;;;;;;;45.67;41.45;;;;;;;7.94;100.00;101903.16;6132533;23;20053;-85
2022/10/08 00:51:58;;;;;;;46.03;41.78;;;;;;;8.20;100.00;101898.63;6128583;23;20037;-84
2022/10/08 00:54:29;;;;;;;44.65;40.42;;;;;;;8.14;100.00;101888.69;6131433;23;20384;-84
2022/10/08 00:57:02;;;;;;;43.40;39.60;;;;;;;7.83;100.00;101892.88;6132304;23;20372;-85
2022/10/08 00:59:42;;;;;;;;;;;;;;;;;;;;;
2022/10/08 01:02:12;;;;;;;45.75;41.50;;;;;;;8.20;100.00;101890.69;6152778;23;19954;-84
2022/10/08 01:04:45;;;;;;;46.10;41.58;;;;;;;8.00;100.00;101876.91;6157528;23;20202;-85
2022/10/08 01:07:28;;;;;;;45.63;41.42;;;;;;;8.04;100.00;101880.03;6160641;23;20026;-85
2022/10/08 01:10:13;;;;;;;44.45;40.15;;;;;;;7.98;100.00;101868.28;6159575;23;20133;-84
2022/10/08 01:13:02;;;;;;;45.95;41.55;;;;;;;8.04;100.00;101872.94;6161253;23;20451;-84
2022/10/08 01:21:26;;;;;;;47.40;42.97;;;;;;;7.67;100.00;101868.00;6154288;23;20022;-83
2022/10/08 01:27:40;;;;;;;43.40;39.20;;;;;;;7.76;100.00;101871.50;6158465;23;20032;-84
2022/10/08 01:30:14;;;;;;;;;;;;;;;7.57;100.00;101860.19;6160944;23;20025;-82
2022/10/08 01:32:50;;;;;;;44.53;40.35;;;;;;;7.67;100.00;101862.72;6160890;23;19916;-85
2022/10/08 01:35:32;;;;;;;43.42;39.45;;;;;;;7.73;100.00;101863.91;6161179;23;20060;-84
2022/10/08 01:38:16;;;;;;;43.58;39.38;;;;;;;7.77;100.00;101870.53;6160064;23;20029;-83
2022/10/08 01:40:47;;;;;;;40.35;36.58;;;;;;;7.14;100.00;101863.78;6161094;23;20049;-84
2022/10/08 01:43:37;;;;;;;44.78;40.70;;;;;;;7.65;100.00;101867.31;6159781;23;20059;-85
2022/10/08 01:46:12;;;;;;;44.55;40.55;;;;;;;7.69;100.00;101863.41;6159388;23;20026;-83
2022/10/08 01:51:37;;;;;;;47.38;43.42;;;;;;;7.27;100.00;101864.16;6161774;23;20077;-83
2022/10/08 01:54:17;;;;;;;44.38;40.47;;;;;;;7.69;100.00;101863.41;6159422;23;20517;-84
2022/10/08 01:56:56;;;;;;;43.83;39.92;;;;;;;7.58;100.00;101858.38;6160537;23;20083;-83
2022/10/08 02:02:22;;;;;;;42.17;38.50;;;;;;;7.40;100.00;101858.47;6138509;23;20046;-84
2022/10/08 02:04:53;;;;;;;47.00;42.63;;;;;;;7.51;100.00;101871.41;6161461;23;20097;-83
2022/10/08 02:07:30;;;;;;;43.33;39.83;;;;;;;7.40;100.00;101866.38;6159024;23;20029;-85
2022/10/08 02:10:04;;;;;;;43.80;39.85;;;;;;;7.24;100.00;101868.94;6157412;23;20026;-83
2022/10/08 02:12:43;;;;;;;44.22;40.35;;;;;;;7.33;100.00;101874.13;6162956;23;20497;-86
2022/10/08 02:15:15;;;;;;;46.67;42.38;;;;;;;7.28;100.00;101871.09;6156023;23;20025;-84
2022/10/08 02:18:08;;;;;;;43.85;39.75;;;;;;;7.16;100.00;101871.53;6160265;23;20025;-84
2022/10/08 02:20:49;;;;;;;44.00;40.10;;;;;;;7.34;100.00;101867.00;6163800;23;20021;-84
2022/10/08 02:23:40;;;;;;;45.25;41.25;;;;;;;7.28;100.00;101881.66;6159344;23;20394;-87
2022/10/08 02:26:21;;;;;;;42.70;38.63;;;;;;;7.08;100.00;101880.22;6157539;23;20084;-85
2022/10/08 02:28:59;;;;;;;40.90;37.05;;;;;;;7.10;100.00;101883.53;6160810;23;20088;-84
2022/10/08 02:31:31;;;;;;;43.53;39.53;;;;;;;7.24;100.00;101885.63;6159390;23;20507;-84
2022/10/08 02:34:07;;;;;;;42.17;38.55;;;;;;;7.39;100.00;101875.31;6159601;23;20080;-84
2022/10/08 02:36:54;;;;;;;44.38;40.25;;;;;;;7.28;100.00;101880.84;6162218;23;20092;-85
2022/10/08 02:39:24;;;;;;;43.83;39.65;;;;;;;7.23;100.00;101883.13;6158412;23;20032;-85
2022/10/08 02:42:00;;;;;;;39.78;36.38;;;;;;;6.73;100.00;101886.41;6158961;23;20017;-84
2022/10/08 02:44:46;;;;;;;43.83;39.97;;;;;;;7.15;100.00;101872.53;6158548;23;20029;-85
2022/10/08 02:47:19;;;;;;;45.08;41.20;;;;;;;7.08;100.00;101875.78;6159819;23;20525;-84
2022/10/08 02:49:52;;;;;;;43.30;39.60;;;;;;;7.22;100.00;101882.28;6157809;23;20026;-84
2022/10/08 02:52:21;;;;;;;42.75;38.67;;;;;;;7.14;100.00;101879.63;6156963;23;20316;-84
2022/10/08 02:54:52;;;;;;;43.75;39.85;;;;;;;7.19;100.00;101884.44;6157723;23;20465;-86
2022/10/08 02:57:26;;;;;;;43.47;39.67;;;;;;;7.43;100.00;101884.56;6156828;23;20406;-83
2022/10/08 03:00:02;;;;;;;43.25;39.28;;;;;;;7.06;100.00;101872.47;6157763;23;20025;-84
2022/10/08 03:02:38;;;;;;;44.75;40.85;;;;;;;7.34;100.00;101878.41;6157159;23;20035;-84
2022/10/08 03:05:13;;;;;;;43.42;39.63;;;;;;;7.45;100.00;101879.97;6158581;23;20018;-85
2022/10/08 03:07:44;;;;;;;46.17;41.72;;;;;;;7.37;100.00;101879.09;6158163;23;20025;-85
2022/10/08 03:10:20;;;;;;;44.70;40.63;;;;;;;7.38;100.00;101873.63;6157642;23;20029;-85
2022/10/08 03:12:49;;;;;;;44.33;40.20;;;;;;;7.17;100.00;101867.88;6159401;23;20032;-83
2022/10/08 03:15:26;;;;;;;43.45;39.13;;;;;;;7.01;100.00;101868.63;6158730;23;20030;-84
2022/10/08 03:17:54;;;;;;;45.25;40.83;;;;;;;7.16;100.00;101861.78;6157063;23;20090;-83
2022/10/08 03:20:30;;;;;;;45.70;41.28;;;;;;;7.33;100.00;101868.00;6156952;23;20308;-83
2022/10/08 03:23:01;;;;;;;43.67;39.38;;;;;;;7.23;100.00;101873.41;6157785;23;20053;-83
2022/10/08 03:25:28;;;;;;;43.65;39.80;;;;;;;7.38;100.00;101867.53;6160991;23;20033;-83
2022/10/08 03:28:01;;;;;;;44.17;40.28;;;;;;;7.37;100.00;101864.06;6158395;23;20046;-83
2022/10/08 03:30:28;;;;;;;43.88;39.70;;;;;;;7.25;100.00;101866.13;6158105;23;20026;-85
2022/10/08 03:32:55;;;;;;;44.00;40.20;;;;;;;7.29;100.00;101872.78;6155556;23;20021;-84
2022/10/08 03:35:26;;;;;;;42.42;38.42;;;;;;;7.30;100.00;101866.50;6157130;23;20025;-85
2022/10/08 03:37:57;;;;;;;41.08;37.38;;;;;;;7.04;100.00;101877.06;6157519;23;20018;-86
2022/10/08 03:40:24;;;;;;;46.38;41.85;;;;;;;7.20;100.00;101879.00;6155568;23;20096;-85
2022/10/08 03:43:08;;;;;;;42.53;38.60;;;;;;;7.19;100.00;101877.31;6156115;23;20025;-84
2022/10/08 03:45:37;;;;;;;40.60;36.97;;;;;;;7.29;100.00;101874.56;6156724;23;20032;-84
2022/10/08 03:48:14;;;;;;;40.70;37.17;;;;;;;7.27;100.00;101871.28;6157379;23;20065;-84
2022/10/08 03:50:52;;;;;;;40.78;37.25;;;;;;;7.16;100.00;101867.06;6157899;23;20093;-84
2022/10/08 03:53:27;;;;;;;41.05;37.67;;;;;;;7.18;100.00;101865.09;6157307;23;20509;-84
2022/10/08 03:56:09;;;;;;;40.55;36.92;;;;;;;7.03;100.00;101862.19;6157274;23;20023;-84
2022/10/08 03:58:39;;;;;;;40.00;36.03;;;;;;;7.06;100.00;101864.53;6157224;23;20017;-84
2022/10/08 04:01:07;;;;;;;38.03;34.78;;;;;;;7.06;100.00;101869.00;6153498;23;20022;-84
2022/10/08 04:03:34;;;;;;;40.90;37.42;;;;;;;7.09;100.00;101860.75;6156874;23;20481;-83
2022/10/08 04:06:01;;;;;;;40.53;37.03;;;;;;;7.06;100.00;101869.00;6042458;23;20022;-83
2022/10/08 04:08:33;;;;;;;44.10;40.28;;;;;;;7.04;100.00;101863.03;6145287;23;20032;-83
2022/10/08 04:11:09;;;;;;;42.28;38.45;;;;;;;7.08;100.00;101854.66;6158644;23;20037;-83
2022/10/08 04:13:38;;;;;;;40.60;36.60;;;;;;;7.04;100.00;101855.09;6159323;23;20096;-84
2022/10/08 04:16:14;;;;;;;41.88;37.75;;;;;;;6.98;100.00;101845.16;6158309;23;20059;-84
2022/10/08 04:18:41;;;;;;;40.95;37.15;;;;;;;6.85;100.00;101843.75;6158556;23;20022;-85
2022/10/08 04:21:32;;;;;;;39.55;36.25;;;;;;;6.98;100.00;101848.63;6157914;23;20714;-84
2022/10/08 04:24:01;;;;;;;44.25;39.97;;;;;;;6.83;100.00;101842.22;6158556;23;20462;-84
2022/10/08 04:26:37;;;;;;;44.88;40.58;;;;;;;6.64;100.00;101840.59;6158578;23;20032;-85
2022/10/08 04:29:11;;;;;;;42.67;38.50;;;;;;;6.69;100.00;101835.72;6159035;23;20335;-84
2022/10/08 04:31:42;;;;;;;41.95;37.95;;;;;;;6.58;100.00;101846.50;6157983;23;20021;-84
2022/10/08 04:34:10;;;;;;;40.90;37.03;;;;;;;6.60;100.00;101845.38;6161592;23;20100;-86
2022/10/08 04:36:40;;;;;;;40.38;36.70;;;;;;;6.55;100.00;101847.63;6159043;23;20037;-84
2022/10/08 04:39:21;;;;;;;40.08;36.17;;;;;;;6.61;100.00;101844.38;6158903;23;20096;-84
2022/10/08 04:41:52;;;;;;;39.90;36.33;;;;;;;6.15;100.00;101850.72;6158385;23;20096;-83
2022/10/08 04:44:20;;;;;;;41.65;37.83;;;;;;;6.74;100.00;101851.06;6163086;23;20088;-83
2022/10/08 04:46:47;;;;;;;40.47;36.65;;;;;;;6.93;100.00;101845.63;6161818;23;20053;-84
2022/10/08 04:49:20;;;;;;;40.50;36.58;;;;;;;7.03;100.00;101843.69;6160801;23;20088;-84
2022/10/08 04:51:52;;;;;;;41.70;37.53;;;;;;;7.35;100.00;101847.50;6160628;23;20443;-84
2022/10/08 04:54:20;;;;;;;41.50;37.72;;;;;;;7.41;100.00;101854.00;6158608;23;20017;-84
2022/10/08 04:56:49;;;;;;;40.13;36.60;;;;;;;7.68;100.00;101859.06;6157912;23;20427;-84
2022/10/08 04:59:28;;;;;;;41.38;37.85;;;;;;;7.67;100.00;101861.91;6158230;23;20017;-84
2022/10/08 05:01:55;;;;;;;39.72;36.25;;;;;;;7.48;100.00;101860.31;6158091;23;20394;-84
2022/10/08 05:04:22;;;;;;;39.10;35.55;;;;;;;7.62;100.00;101866.81;6158753;23;20384;-84
2022/10/08 05:06:50;;;;;;;39.20;35.65;;;;;;;7.66;100.00;101861.06;6157450;23;20021;-84
2022/10/08 05:09:26;;;;;;;40.72;37.03;;;;;;;7.94;100.00;101866.13;6156788;23;20025;-84
2022/10/08 05:11:54;;;;;;;40.22;36.70;;;;;;;8.02;100.00;101866.16;6157876;23;20096;-84
2022/10/08 05:14:22;;;;;;;41.13;37.35;;;;;;;8.20;100.00;101860.72;6158212;23;20022;-84
2022/10/08 05:17:00;;;;;;;39.75;36.40;;;;;;;8.34;100.00;101857.44;6157968;23;20105;-83
2022/10/08 05:19:35;;;;;;;39.22;35.67;;;;;;;8.41;100.00;101857.66;6156951;23;20021;-84
2022/10/08 05:22:02;;;;;;;40.88;37.22;;;;;;;8.54;100.00;101860.66;6157212;23;20096;-84
2022/10/08 05:24:31;;;;;;;41.53;37.78;;;;;;;8.76;100.00;101855.69;6157678;23;20029;-84
2022/10/08 05:27:04;;;;;;;40.40;36.92;;;;;;;8.84;100.00;101856.53;6157805;23;20395;-84
2022/10/08 05:29:40;;;;;;;42.10;38.60;;;;;;;9.03;100.00;101857.16;6156552;23;20065;-86
2022/10/08 05:32:30;;;;;;;45.40;41.67;;;;;;;9.01;100.00;101862.63;6160764;23;20024;-85
2022/10/08 05:35:03;;;;;;;45.70;41.35;;;;;;;9.10;100.00;101860.78;6158053;23;20029;-84
2022/10/08 05:37:43;;;;;;;40.72;37.53;;;;;;;9.11;100.00;101857.97;6158240;23;20018;-84
2022/10/08 05:40:19;;;;;;;41.17;37.85;;;;;;;9.18;100.00;101860.78;6160063;23;20018;-85
2022/10/08 05:42:56;;;;;;;42.80;39.10;;;;;;;9.50;100.00;101862.53;6159408;23;20021;-84
2022/10/08 05:45:29;;;;;;;41.25;37.65;;;;;;;9.44;100.00;101859.72;6158468;23;20031;-85
2022/10/08 05:47:56;;;;;;;43.20;39.60;;;;;;;9.55;100.00;101859.34;6158583;23;20029;-84
2022/10/08 05:50:23;;;;;;;46.63;40.75;;;;;;;9.72;100.00;101870.75;6159098;23;20021;-84
2022/10/08 05:52:55;;;;;;;41.45;37.70;;;;;;;9.30;100.00;101851.47;6157847;23;20374;-84
2022/10/08 05:55:28;;;;;;;45.85;41.83;;;;;;;9.93;100.00;101862.19;6157876;23;20375;-84
2022/10/08 05:58:04;;;;;;;44.63;40.58;;;;;;;10.22;100.00;101865.00;6161776;23;20022;-83
2022/10/08 06:00:48;;;;;;;40.80;37.40;;;;;;;10.30;100.00;101858.84;6158236;23;20018;-83
2022/10/08 06:03:21;;;;;;;41.75;38.05;;;;;;;10.55;100.00;101860.31;6159282;23;20035;-84
2022/10/08 06:06:06;;;;;;;42.63;39.22;;;;;;;10.72;100.00;101865.50;6157804;23;20022;-83
2022/10/08 06:08:45;;;;;;;41.78;38.22;;;;;;;10.70;100.00;101860.38;6158310;23;20064;-83
2022/10/08 06:11:14;;;;;;;42.63;39.00;;;;;;;11.27;100.00;101864.31;6157851;23;20021;-86
2022/10/08 06:13:40;;;;;;;40.08;36.70;;;;;;;11.33;100.00;101863.59;6157496;23;20095;-85
2022/10/08 06:16:23;;;;;;;39.47;36.35;;;;;;;11.42;100.00;101856.34;6159514;23;20036;-86
2022/10/08 06:19:06;;;;;;;40.53;37.25;;;;;;;11.72;100.00;101862.47;6158193;23;20022;-86
2022/10/08 06:21:37;;;;;;;39.00;35.78;;;;;;;11.91;100.00;101850.44;6157648;23;20032;-86
2022/10/08 06:24:06;;;;;;;42.08;38.40;;;;;;;12.16;100.00;101858.91;6158081;23;20021;-84
2022/10/08 06:27:14;;;;;;;40.20;36.47;;;;;;;12.25;100.00;101860.44;6157362;23;20021;-85
2022/10/08 06:29:51;;;;;;;38.20;34.95;;;;;;;12.64;100.00;101861.03;6056210;23;20096;-84
2022/10/08 06:32:36;;;;;;;38.97;35.80;;;;;;;12.72;100.00;101856.38;6159398;23;20021;-84
2022/10/08 06:35:33;;;;;;;39.25;35.95;;;;;;;13.05;100.00;101858.50;6157472;23;20021;-87
2022/10/08 06:38:02;;;;;;;39.33;36.53;;;;;;;13.30;100.00;101866.91;6157051;23;20095;-84
2022/10/08 06:40:31;;;;;;;39.35;36.40;;;;;;;13.59;100.00;101863.16;6156891;23;20029;-83
2022/10/08 06:43:05;;;;;;;38.92;35.67;;;;;;;13.55;100.00;101859.22;6156919;23;20052;-83
2022/10/08 06:45:38;;;;;;;39.58;36.25;;;;;;;13.75;100.00;101870.00;6157641;23;20021;-84
2022/10/08 06:48:13;;;;;;;41.38;37.95;;;;;;;13.98;100.00;101867.84;6160134;23;20443;-85
2022/10/08 06:50:45;;;;;;;50.15;44.67;;;;;;;14.10;100.00;101867.25;6156546;23;20427;-84
2022/10/08 06:53:28;;;;;;;45.58;40.83;;;;;;;14.55;100.00;101856.88;6156742;23;20462;-85
2022/10/08 06:55:59;;;;;;;63.40;49.63;;;;;;;14.88;100.00;101860.38;6161904;23;20018;-83
2022/10/08 06:58:26;;;;;;;285.80;133.50;;;;;;;15.20;100.00;101857.88;6156160;23;20021;-82
2022/10/08 07:01:03;;;;;;;295.83;136.15;;;;;;;15.23;100.00;101853.97;6153298;23;20391;-82
2022/10/08 07:03:38;;;;;;;327.63;147.48;;;;;;;15.57;100.00;101860.88;6156625;23;20033;-87
2022/10/08 07:06:06;;;;;;;288.70;132.63;;;;;;;15.99;100.00;101856.81;6156205;23;20022;-83
2022/10/08 07:08:40;;;;;;;256.85;123.25;;;;;;;16.59;100.00;101856.44;6155964;23;20033;-85
2022/10/08 07:11:12;;;;;;;242.73;118.97;;;;;;;16.58;100.00;101848.59;6155936;23;20022;-82
2022/10/08 07:13:41;;;;;;;172.77;93.78;;;;;;;16.88;100.00;101852.31;6155762;23;20028;-83
2022/10/08 07:16:14;;;;;;;105.88;66.00;;;;;;;16.84;100.00;101853.78;6156360;23;20022;-83
2022/10/08 07:18:48;;;;;;;75.18;53.78;;;;;;;17.17;100.00;101847.28;6155331;23;20056;-84
2022/10/08 07:21:17;;;;;;;75.93;53.67;;;;;;;17.59;100.00;101834.81;6155754;23;20382;-86
2022/10/08 07:23:44;;;;;;;77.70;54.35;;;;;;;17.51;100.00;101845.03;6155256;23;20018;-84
2022/10/08 07:26:15;;;;;;;72.32;53.30;;;;;;;17.75;100.00;101843.31;6155395;23;20017;-83
2022/10/08 07:28:49;;;;;;;62.45;46.50;;;;;;;18.46;100.00;101839.03;6155772;23;20026;-83
2022/10/08 07:31:30;;;;;;;56.08;45.70;;;;;;;19.22;100.00;101840.81;6155995;23;20317;-84
2022/10/08 07:33:59;;;;;;;48.88;43.70;;;;;;;19.07;100.00;101840.50;6153595;23;20096;-84
2022/10/08 07:36:35;;;;;;;50.63;42.42;;;;;;;18.15;100.00;101832.84;6155425;23;20025;-84
2022/10/08 07:39:04;;;;;;;40.00;36.03;;;;;;;18.17;100.00;101836.13;6156371;23;20057;-84
2022/10/08 07:41:35;;;;;;;45.75;40.38;;;;;;;19.16;100.00;101831.00;6153289;23;20026;-84
2022/10/08 07:44:05;;;;;;;45.15;40.28;;;;;;;19.42;100.00;101820.75;6155934;23;20021;-85
2022/10/08 07:46:54;;;;;;;41.22;37.30;;;;;;;19.60;100.00;101817.06;6157857;23;20100;-85
2022/10/08 07:49:23;;;;;;;40.63;36.53;;;;;;;19.42;100.00;101808.09;6156842;23;20025;-84
2022/10/08 07:51:52;;;;;;;37.47;34.47;;;;;;;20.31;100.00;101806.81;6157705;23;20045;-84
2022/10/08 07:54:21;;;;;;;38.03;34.40;;;;;;;20.83;100.00;101816.53;6157097;23;20029;-83
2022/10/08 07:56:53;;;;;;;39.65;35.95;;;;;;;19.29;100.00;101815.63;6157479;23;20092;-85
2022/10/08 07:59:25;;;;;;;;;;;;;;;19.58;100.00;101809.25;6158697;23;20025;-84
2022/10/08 08:01:53;;;;;;;39.30;35.53;;;;;;;20.79;100.00;101822.44;6153478;23;19916;-86
2022/10/08 08:04:20;;;;;;;42.03;37.72;;;;;;;21.99;100.00;101810.13;6157914;23;20017;-85
2022/10/08 08:06:52;;;;;;;39.35;35.08;;;;;;;22.17;100.00;101817.91;6158095;23;20339;-85
2022/10/08 08:09:28;;;;;;;43.20;36.50;;;;;;;21.83;100.00;101809.16;6158115;23;20029;-85
2022/10/08 08:11:59;;;;;;;42.70;37.70;;;;;;;19.95;100.00;101814.28;6157757;23;20254;-84
2022/10/08 08:14:30;;;;;;;40.80;36.53;;;;;;;21.28;100.00;101805.53;6157201;23;20032;-85
2022/10/08 08:17:30;;;;;;;40.55;36.45;;;;;;;21.99;100.00;101812.84;6157291;23;20048;-85
2022/10/08 08:20:07;;;;;;;41.55;36.97;;;;;;;22.79;100.00;101805.66;6141740;23;20025;-85
2022/10/08 08:22:34;;;;;;;41.05;36.97;;;;;;;22.40;100.00;101801.31;6157562;23;20104;-85
2022/10/08 08:25:10;;;;;;;40.05;35.95;;;;;;;22.94;100.00;101794.94;6157833;23;20105;-86
2022/10/08 08:28:02;;;;;;;38.88;35.20;;;;;;;22.77;100.00;101799.69;6157576;23;20391;-86
2022/10/08 08:30:29;;;;;;;39.58;35.75;;;;;;;23.34;100.00;101796.22;6157713;23;20034;-84
2022/10/08 08:33:04;;;;;;;41.42;37.35;;;;;;;22.58;100.00;101791.19;6157896;23;20029;-85
2022/10/08 08:35:37;;;;;;;41.47;37.03;;;;;;;22.25;100.00;101790.38;6157719;23;20018;-84
2022/10/08 08:38:27;;;;;;;41.20;37.42;;;;;;;23.47;100.00;101786.75;6157458;23;20391;-84
2022/10/08 08:41:23;;;;;;;41.17;37.13;;;;;;;23.17;100.00;101790.97;6157481;23;20084;-84
2022/10/08 08:43:58;;;;;;;42.17;38.25;;;;;;;24.14;98.96;101785.00;6157518;23;20021;-84
2022/10/08 08:46:27;;;;;;;42.95;39.22;;;;;;;23.62;100.00;101780.56;6157843;23;20095;-87
2022/10/08 08:49:19;;;;;;;43.08;39.10;;;;;;;23.98;90.74;101781.47;6157039;23;20025;-86
2022/10/08 08:51:48;;;;;;;41.05;37.45;;;;;;;24.50;87.86;101769.53;6157361;23;20022;-86
2022/10/08 08:54:17;;;;;;;40.05;36.25;;;;;;;25.39;82.45;101767.09;6157639;23;20025;-87
2022/10/08 08:56:45;;;;;;;38.80;35.25;;;;;;;25.41;77.53;101766.78;6156312;23;20076;-84
2022/10/08 08:59:26;;;;;;;38.00;34.78;;;;;;;24.54;80.51;101761.63;6156901;23;20021;-85
2022/10/08 09:01:58;;;;;;;39.25;35.83;;;;;;;24.00;84.28;101760.31;6156029;23;20343;-83
2022/10/08 09:04:40;;;;;;;;;;;;;;;25.08;84.42;101759.06;6158041;23;20017;-85
2022/10/08 09:07:13;;;;;;;39.30;36.00;;;;;;;24.85;82.42;101756.97;6157643;23;19917;-86
2022/10/08 09:09:58;;;;;;;38.13;34.67;;;;;;;25.51;79.59;101753.97;6157649;23;20134;-85
2022/10/08 09:12:33;;;;;;;39.10;35.58;;;;;;;26.24;83.49;101757.78;6157280;23;20530;-84
2022/10/08 09:15:02;;;;;;;39.97;36.47;;;;;;;26.40;65.51;101747.56;6157497;23;20036;-85
2022/10/08 09:17:32;;;;;;;38.22;34.72;;;;;;;26.75;65.42;101740.13;6157295;23;20026;-85
2022/10/08 09:20:02;;;;;;;40.65;37.05;;;;;;;25.30;70.30;101745.09;6156728;23;20105;-86
2022/10/08 09:22:35;;;;;;;41.15;37.35;;;;;;;24.63;70.69;101740.97;6156896;23;20022;-85
2022/10/08 09:25:19;;;;;;;39.47;36.05;;;;;;;23.57;80.84;101734.44;6157055;23;20017;-86
2022/10/08 09:27:56;;;;;;;37.72;34.40;;;;;;;26.18;64.73;101732.50;6157393;23;20097;-87
2022/10/08 09:30:43;;;;;;;38.70;35.13;;;;;;;25.98;58.97;101728.06;6156989;23;20033;-85
2022/10/08 09:33:30;;;;;;;39.80;36.47;;;;;;;24.62;66.30;101728.50;6157583;23;20060;-87
2022/10/08 09:35:59;;;;;;;40.63;37.08;;;;;;;23.36;84.50;101726.28;6157324;23;20063;-84
2022/10/08 09:38:30;;;;;;;40.08;36.63;;;;;;;25.45;71.17;101716.22;6157447;23;20021;-85
2022/10/08 09:41:05;;;;;;;40.17;36.65;;;;;;;23.07;99.84;101723.22;6157149;23;20100;-85
2022/10/08 09:43:36;;;;;;;39.33;36.22;;;;;;;23.92;83.90;101720.97;6157097;23;20025;-85
2022/10/08 09:46:10;;;;;;;39.53;36.22;;;;;;;25.01;75.58;101709.59;6156928;23;20498;-83
2022/10/08 09:48:46;;;;;;;42.80;38.45;;;;;;;25.84;81.81;101709.94;6156924;23;20025;-85
2022/10/08 09:51:32;;;;;;;41.75;38.35;;;;;;;26.35;66.41;101707.56;6156805;23;20099;-85
2022/10/08 09:54:17;;;;;;;40.92;37.00;;;;;;;25.67;70.77;101702.97;6156523;23;20498;-87
2022/10/08 09:56:52;;;;;;;39.50;35.60;;;;;;;26.03;67.25;101703.53;6156774;23;20104;-84
2022/10/08 09:59:23;;;;;;;37.50;34.42;;;;;;;25.86;63.49;101699.59;6156597;23;20092;-83
2022/10/08 10:01:50;;;;;;;38.75;35.13;;;;;;;26.37;64.79;101702.63;6156170;23;20034;-86
2022/10/08 10:04:19;;;;;;;36.10;32.83;;;;;;;26.34;52.51;101702.41;6151910;23;20030;-82
2022/10/08 10:06:54;;;;;;;43.00;39.60;;;;;;;27.27;54.09;101686.59;6153162;23;20513;-86
2022/10/08 10:09:38;;;;;;;41.33;37.22;;;;;;;28.16;56.94;101674.78;6154971;23;20049;-86
2022/10/08 10:12:15;;;;;;;188.38;73.45;;;;;;;29.10;52.51;101673.44;6154652;23;20099;-87
2022/10/08 10:14:49;;;;;;;83.35;50.90;;;;;;;28.22;50.74;101666.19;6155364;23;20032;-87
2022/10/08 10:17:25;;;;;;;44.55;40.85;;;;;;;27.01;49.08;101664.31;6154799;23;20028;-87
2022/10/08 10:19:58;;;;;;;55.17;35.78;;;;;;;27.76;55.59;101660.72;6155185;23;20026;-82
2022/10/08 10:22:35;;;;;;;47.25;42.25;;;;;;;28.66;49.87;101659.34;6155026;23;20426;-86
2022/10/08 10:25:12;;;;;;;40.40;36.85;;;;;;;28.51;47.60;101654.19;6155628;23;20029;-88
2022/10/08 10:27:47;;;;;;;38.75;35.35;;;;;;;28.93;44.42;101650.28;6154595;23;20026;-85
2022/10/08 10:30:18;;;;;;;45.10;40.90;;;;;;;28.62;51.96;101652.84;6154468;23;20033;-87
2022/10/08 10:32:50;;;;;;;38.65;35.38;;;;;;;30.00;44.03;101646.88;6154672;23;20093;-86
2022/10/08 10:35:24;;;;;;;38.85;35.80;;;;;;;28.68;48.13;101646.16;6155116;23;20036;-86
2022/10/08 10:37:59;;;;;;;39.13;36.17;;;;;;;28.40;45.05;101644.53;6156171;23;20394;-83
2022/10/08 10:40:32;;;;;;;39.60;36.17;;;;;;;29.06;40.92;101640.44;6156394;23;20018;-83
2022/10/08 10:43:17;;;;;;;40.75;36.65;;;;;;;29.14;42.19;101642.44;6156009;23;20026;-83
2022/10/08 10:45:52;;;;;;;38.33;34.92;;;;;;;29.32;45.62;101634.34;6155693;23;20025;-87
2022/10/08 10:48:22;;;;;;;37.67;34.35;;;;;;;29.74;42.29;101633.03;6156325;23;20036;-85
2022/10/08 10:51:30;;;;;;;37.65;34.85;;;;;;;29.19;42.40;101625.91;6155949;23;20025;-83
2022/10/08 10:54:23;;;;;;;36.70;33.88;;;;;;;29.45;42.55;101614.34;6130031;23;20029;-89
2022/10/08 10:56:56;;;;;;;34.97;32.05;;;;;;;30.00;40.73;101616.75;6156084;23;20021;-82
2022/10/08 10:59:36;;;;;;;35.25;32.35;;;;;;;29.31;41.39;101610.88;6156081;23;20052;-87
2022/10/08 11:02:14;;;;;;;34.88;31.98;;;;;;;26.95;45.98;101606.31;6155680;23;20026;-83
2022/10/08 11:04:51;;;;;;;36.33;33.53;;;;;;;28.39;45.29;101597.28;6156274;23;20028;-84
2022/10/08 11:07:37;;;;;;;36.05;33.03;;;;;;;29.19;43.03;101582.13;6156249;23;20040;-83
2022/10/08 11:10:18;;;;;;;35.70;32.80;;;;;;;29.07;40.09;101584.63;6155907;23;20030;-83
2022/10/08 11:12:52;;;;;;;35.63;32.75;;;;;;;28.67;42.96;101589.09;6156397;23;20399;-83
2022/10/08 11:15:29;;;;;;;36.70;33.97;;;;;;;28.71;41.75;101579.94;6155477;23;20080;-83
2022/10/08 11:18:12;;;;;;;37.92;34.92;;;;;;;26.32;41.79;101577.44;6156367;23;20096;-83
2022/10/08 11:20:56;;;;;;;36.17;33.40;;;;;;;28.95;41.72;101568.72;6158327;23;20049;-83
2022/10/08 11:23:46;;;;;;;35.85;33.25;;;;;;;29.73;40.74;101571.22;6158360;23;20025;-83
2022/10/08 11:26:24;;;;;;;35.90;33.15;;;;;;;30.25;36.90;101563.19;6158292;23;20037;-82
2022/10/08 11:29:00;;;;;;;36.33;33.53;;;;;;;29.32;36.91;101561.31;6157556;23;20028;-84
2022/10/08 11:31:38;;;;;;;36.55;33.97;;;;;;;29.19;40.39;101548.50;6158340;23;20095;-87
2022/10/08 11:34:25;;;;;;;36.65;34.08;;;;;;;27.66;40.54;101552.56;6158585;23;20045;-84
2022/10/08 11:37:15;;;;;;;34.13;31.83;;;;;;;29.40;38.71;101543.31;6158508;23;20027;-87
2022/10/08 11:40:08;;;;;;;36.60;33.80;;;;;;;29.15;40.03;101547.53;6158584;23;20033;-85
2022/10/08 11:42:51;;;;;;;35.75;33.05;;;;;;;27.75;42.13;101550.75;6157369;23;20134;-88
2022/10/08 11:45:31;;;;;;;36.15;33.22;;;;;;;28.18;41.55;101541.47;6158152;23;20092;-83
2022/10/08 11:48:01;;;;;;;36.80;33.80;;;;;;;27.44;44.32;101539.56;6158652;23;20021;-85
2022/10/08 11:50:32;;;;;;;36.70;33.67;;;;;;;29.03;43.02;101530.88;6158329;23;20324;-83
2022/10/08 11:53:18;;;;;;;36.17;33.25;;;;;;;29.70;39.14;101530.00;6158021;23;20025;-85
2022/10/08 11:55:53;;;;;;;35.15;32.35;;;;;;;30.37;36.16;101524.22;6157392;23;20032;-87
2022/10/08 11:58:32;;;;;;;35.03;32.33;;;;;;;29.36;41.11;101525.94;6158700;23;20049;-84
2022/10/08 12:01:06;;;;;;;39.35;36.13;;;;;;;28.31;40.89;101524.25;6158790;23;20029;-83
2022/10/08 12:03:37;;;;;;;37.42;34.33;;;;;;;29.54;38.86;101518.63;6159093;23;20018;-84